INFORMAÇÕES METEOROLÓGICAS
METAR FOR SBMK
ADDS - METARS form results

(0150 UTC 25 April 2019)
Data provider http://aviationweather.gov/metar/data/
 
METAR text: SBMK 250100Z 00000KT CAVOK 21/15 Q1019
Conditions at: SBMK (MONTES CLAROS , BR) observed 0100 UTC 25 April 2019
Temperature: 21.0°C (70°F)
Dewpoint: 15.0°C (59°F) [RH = 69%]
Pressure (altimeter): 30.09 inches Hg (1019.0 mb)
Winds: calm
Visibility: 6 or more miles (10+ km)
Ceiling: ceiling and visibility are OK
Clouds: unknown
Weather: no significant weather observed at this time

 MAPA DO AEROPORTO

 INFORMAÇÕES DA PISTA
Pista 12 Tamanho da pista 6890 ft Largura da pista 148 ft
Elevação da pista 0 ft Ranhura da pista 0 ft Proa da pista 0
Pista 30 Tamanho da pista 6890 ft Largura da pista 148 ft
Elevação da pista 0 ft Ranhura da pista 0 ft Proa da pista 0

 FREQUÊNCIAS DO AEROPORTO
Tipo AFIS Nome RDO Frequência 131.7 MHZ

 AUXÍLIOS DE NAVEGAÇÃO PRÓXIMOS AO AEROPORTO
Tipo NDB Nome Montes Claros Frequência 310 KHZ





Powered by Virtual Airlines Manager [v2.6.2]